Time;durP1;ratioP1;P1;durP2;ratioP2;P2;SDS_P1;SDS_P2;PMS_P1;PMS_P2;Temp;Humidity;BMP_temperature;BMP_pressure;BME280_temperature;BME280_humidity;BME280_pressure;Samples;Min_cycle;Max_cycle;Signal;HPM_P1;HPM_P2
2023/01/23 08:32:56;;;;;;;30.00;11.37;;;2.70;99.90;;;;;;4923257;29;20276;-73
2023/01/23 08:35:23;;;;;;;32.77;12.10;;;2.70;99.90;;;;;;4935195;29;20269;-73
2023/01/23 08:37:50;;;;;;;29.97;10.80;;;2.70;99.90;;;;;;4934466;29;20599;-74
2023/01/23 08:40:17;;;;;;;29.80;11.63;;;2.80;99.90;;;;;;4921574;29;21059;-72
2023/01/23 08:42:44;;;;;;;27.90;11.13;;;2.80;99.90;;;;;;4916163;29;20213;-72
2023/01/23 08:45:11;;;;;;;32.23;12.27;;;2.80;99.90;;;;;;4915546;29;20673;-73
2023/01/23 08:47:37;;;;;;;32.07;12.67;;;2.80;99.90;;;;;;4916260;29;20230;-71
2023/01/23 08:50:07;;;;;;;27.70;11.23;;;3.00;99.90;;;;;;4915877;29;20328;-71
2023/01/23 08:52:34;;;;;;;35.53;12.07;;;3.00;99.90;;;;;;4915520;29;20214;-71
2023/01/23 08:55:01;;;;;;;26.20;11.43;;;3.00;99.90;;;;;;4916169;29;20217;-71
2023/01/23 08:57:27;;;;;;;31.47;10.77;;;3.00;99.90;;;;;;4915634;29;20325;-73
2023/01/23 08:59:54;;;;;;;30.97;12.23;;;3.00;99.90;;;;;;4915354;29;20209;-73
2023/01/23 09:02:21;;;;;;;28.37;10.67;;;3.10;99.90;;;;;;4916236;29;20209;-73
2023/01/23 09:04:49;;;;;;;30.33;11.27;;;3.20;99.90;;;;;;4915968;29;20220;-73
2023/01/23 09:07:17;;;;;;;27.90;10.33;;;3.10;99.90;;;;;;4915142;29;20680;-73
2023/01/23 09:09:44;;;;;;;27.10;10.93;;;3.30;99.90;;;;;;4915623;29;20252;-74
2023/01/23 09:12:10;;;;;;;31.33;11.47;;;3.40;99.90;;;;;;4916302;29;20205;-73
2023/01/23 09:14:37;;;;;;;31.40;11.83;;;3.40;99.90;;;;;;4912061;29;20217;-74
2023/01/23 09:17:05;;;;;;;27.97;10.83;;;3.50;99.90;;;;;;4916214;29;20672;-73
2023/01/23 09:19:32;;;;;;;28.37;11.60;;;3.50;99.90;;;;;;4922549;29;20204;-73
2023/01/23 09:21:59;;;;;;;26.00;10.47;;;3.60;99.90;;;;;;4931637;29;20201;-73
2023/01/23 09:24:27;;;;;;;27.33;11.10;;;3.50;99.90;;;;;;4921404;29;20219;-71
2023/01/23 09:26:54;;;;;;;27.97;10.80;;;3.50;99.90;;;;;;4914724;29;20209;-72
2023/01/23 09:29:21;;;;;;;28.33;11.50;;;3.60;99.90;;;;;;4914681;29;20328;-74
2023/01/23 09:31:48;;;;;;;31.07;11.30;;;3.70;99.90;;;;;;4921765;29;20636;-76
2023/01/23 09:34:14;;;;;;;29.77;10.93;;;3.90;99.90;;;;;;4920721;29;20296;-73
2023/01/23 09:36:41;;;;;;;33.40;12.60;;;4.00;99.90;;;;;;4914914;29;20577;-75
2023/01/23 09:39:08;;;;;;;31.50;11.87;;;3.90;99.90;;;;;;4915237;29;20230;-75
2023/01/23 09:41:38;;;;;;;29.13;11.43;;;3.80;99.90;;;;;;4915303;29;20214;-75
2023/01/23 09:44:10;;;;;;;30.03;10.93;;;3.80;99.90;;;;;;4914694;29;20210;-73
2023/01/23 09:46:43;;;;;;;31.80;10.27;;;3.80;99.90;;;;;;4915366;29;20213;-74
2023/01/23 09:49:17;;;;;;;25.07;9.77;;;3.80;99.90;;;;;;4914750;29;20341;-75
2023/01/23 09:51:52;;;;;;;32.23;11.30;;;3.70;99.90;;;;;;4914915;29;20209;-72
2023/01/23 09:54:32;;;;;;;25.07;10.57;;;3.70;99.90;;;;;;4915233;29;20217;-75
2023/01/23 09:57:04;;;;;;;31.63;12.67;;;3.70;99.90;;;;;;4914691;29;20213;-73
2023/01/23 09:59:36;;;;;;;28.00;11.17;;;3.90;99.90;;;;;;4914125;29;20225;-74
2023/01/23 10:02:09;;;;;;;30.17;10.83;;;3.70;99.90;;;;;;4917747;29;20301;-73
2023/01/23 10:04:36;;;;;;;27.83;10.93;;;3.70;99.90;;;;;;4915658;29;20297;-74
2023/01/23 10:07:18;;;;;;;30.80;11.23;;;3.80;99.90;;;;;;4916648;29;20563;-73
2023/01/23 10:10:12;;;;;;;25.23;9.57;;;3.90;99.90;;;;;;4923538;29;20237;-74
2023/01/23 10:12:50;;;;;;;30.23;10.83;;;4.00;99.90;;;;;;4906328;29;20220;-74
2023/01/23 10:15:26;;;;;;;26.43;10.53;;;4.20;99.90;;;;;;4915344;29;20692;-74
2023/01/23 10:18:03;;;;;;;27.13;11.03;;;4.40;99.90;;;;;;4915356;29;20265;-75
2023/01/23 10:20:55;;;;;;;28.97;10.67;;;4.30;99.90;;;;;;4914178;29;20248;-75
2023/01/23 10:23:39;;;;;;;24.37;10.57;;;4.00;99.90;;;;;;4915446;29;20210;-74
2023/01/23 10:26:14;;;;;;;29.80;11.40;;;3.90;99.90;;;;;;4918241;29;20668;-73
2023/01/23 10:28:44;;;;;;;32.87;10.93;;;4.00;99.90;;;;;;4917718;29;20233;-73
2023/01/23 10:31:16;;;;;;;25.30;10.97;;;4.20;99.90;;;;;;4917698;29;20245;-74
2023/01/23 10:33:49;;;;;;;26.30;10.57;;;4.30;99.90;;;;;;4918284;29;20217;-73
2023/01/23 10:36:23;;;;;;;27.90;11.63;;;4.30;99.90;;;;;;4917724;29;20205;-75
2023/01/23 10:38:59;;;;;;;28.90;11.00;;;4.40;99.90;;;;;;4917299;29;20229;-74
2023/01/23 10:41:26;;;;;;;28.57;10.93;;;4.50;99.90;;;;;;4918365;29;20300;-74
2023/01/23 10:43:55;;;;;;;28.70;11.83;;;4.70;99.90;;;;;;4917604;29;20305;-73
2023/01/23 10:46:29;;;;;;;30.93;11.00;;;4.20;99.90;;;;;;4918397;29;20320;-75
2023/01/23 10:48:56;;;;;;;23.23;10.03;;;4.00;99.90;;;;;;4917477;29;20578;-74
2023/01/23 10:51:32;;;;;;;25.50;10.80;;;4.20;99.90;;;;;;4915931;29;20237;-75
2023/01/23 10:54:10;;;;;;;27.77;11.43;;;4.10;99.90;;;;;;4924883;29;20209;-70
2023/01/23 10:56:46;;;;;;;29.70;10.87;;;4.00;99.90;;;;;;4917948;29;20269;-73
2023/01/23 10:59:21;;;;;;;27.30;10.40;;;3.90;99.90;;;;;;4917114;29;20760;-72
2023/01/23 11:02:10;;;;;;;27.43;10.83;;;4.00;99.90;;;;;;4917488;29;20622;-72
2023/01/23 11:04:36;;;;;;;27.70;10.80;;;4.10;99.90;;;;;;4909280;29;20294;-74
2023/01/23 11:07:07;;;;;;;30.13;11.87;;;4.30;99.90;;;;;;4918031;29;20214;-73
2023/01/23 11:09:46;;;;;;;26.27;11.13;;;4.20;99.90;;;;;;4916902;29;20298;-74
2023/01/23 11:12:17;;;;;;;27.17;10.70;;;4.20;99.90;;;;;;4917227;29;20216;-73
2023/01/23 11:14:45;;;;;;;21.67;10.03;;;4.10;99.90;;;;;;4917200;29;20276;-74
2023/01/23 11:17:17;;;;;;;28.43;10.27;;;4.10;99.90;;;;;;4917612;29;20206;-73
2023/01/23 11:19:45;;;;;;;23.87;9.77;;;4.00;99.90;;;;;;4916769;29;20217;-74
2023/01/23 11:22:29;;;;;;;30.73;11.90;;;3.90;99.90;;;;;;4916763;29;20206;-74
2023/01/23 11:24:57;;;;;;;26.33;11.27;;;3.90;99.90;;;;;;4926371;29;20672;-73
2023/01/23 11:27:26;;;;;;;22.00;9.30;;;4.00;99.90;;;;;;4937019;29;20229;-73
2023/01/23 11:30:29;;;;;;;26.23;10.83;;;4.10;99.90;;;;;;4937274;29;20275;-73
2023/01/23 11:33:00;;;;;;;23.93;9.00;;;4.00;99.90;;;;;;4931797;29;20219;-73
2023/01/23 11:35:44;;;;;;;26.40;11.00;;;3.90;99.90;;;;;;4936877;29;20212;-73
2023/01/23 11:38:16;;;;;;;22.50;9.33;;;3.90;99.90;;;;;;4937489;29;20252;-73
2023/01/23 11:40:42;;;;;;;21.57;9.00;;;3.90;99.90;;;;;;4937353;29;20664;-73
2023/01/23 11:43:14;;;;;;;24.60;10.47;;;3.90;99.90;;;;;;4937349;29;20211;-73
2023/01/23 11:45:55;;;;;;;21.77;8.40;;;4.10;99.90;;;;;;4937422;29;20231;-72
2023/01/23 11:48:44;;;;;;;27.70;10.37;;;4.30;99.90;;;;;;4936986;29;20237;-74
2023/01/23 11:51:15;;;;;;;20.40;9.27;;;4.30;99.90;;;;;;4937274;29;20232;-72
2023/01/23 11:53:47;;;;;;;24.07;9.90;;;4.40;99.90;;;;;;4937420;29;20209;-72
2023/01/23 11:56:38;;;;;;;24.43;10.57;;;4.30;99.90;;;;;;4937028;29;20215;-73
2023/01/23 11:59:35;;;;;;;24.23;9.93;;;4.30;99.90;;;;;;4934571;29;20233;-75
2023/01/23 12:02:37;;;;;;;24.87;8.83;;;4.30;99.90;;;;;;4921646;29;20231;-74
2023/01/23 12:05:23;;;;;;;27.27;11.33;;;4.30;99.90;;;;;;4936987;29;20211;-74
2023/01/23 12:07:59;;;;;;;25.90;9.40;;;4.20;99.90;;;;;;4936793;29;20643;-75
2023/01/23 12:10:33;;;;;;;20.00;9.37;;;4.30;99.90;;;;;;4936736;29;20232;-74
2023/01/23 12:13:14;;;;;;;20.43;9.77;;;4.40;99.90;;;;;;4936638;29;20216;-74
2023/01/23 12:15:46;;;;;;;23.47;9.83;;;4.20;99.90;;;;;;4936964;29;20213;-75
2023/01/23 12:18:28;;;;;;;22.13;9.50;;;4.00;99.90;;;;;;4936688;29;20229;-75
2023/01/23 12:21:04;;;;;;;23.40;9.93;;;4.00;99.90;;;;;;4936799;29;20213;-75
2023/01/23 12:23:58;;;;;;;25.03;9.77;;;4.00;99.90;;;;;;4936464;29;20209;-75
2023/01/23 12:26:28;;;;;;;20.57;8.87;;;4.20;99.90;;;;;;4936201;29;20209;-74
2023/01/23 12:29:30;;;;;;;23.03;9.40;;;4.30;99.90;;;;;;4936374;29;20719;-75
2023/01/23 12:32:13;;;;;;;24.77;9.73;;;4.40;99.90;;;;;;4936095;29;20650;-75
2023/01/23 12:34:57;;;;;;;22.53;9.57;;;4.60;99.90;;;;;;4936490;29;20208;-75
2023/01/23 12:37:43;;;;;;;21.40;9.10;;;4.50;99.90;;;;;;4935777;29;20232;-74
2023/01/23 12:40:14;;;;;;;21.00;9.27;;;4.40;99.90;;;;;;4932667;29;20200;-75
2023/01/23 12:42:49;;;;;;;24.63;9.67;;;4.40;99.90;;;;;;4905186;29;20206;-77
2023/01/23 12:45:21;;;;;;;23.97;9.33;;;4.30;99.90;;;;;;4896091;29;20618;-78
2023/01/23 12:47:59;;;;;;;23.43;9.37;;;4.30;99.90;;;;;;4896202;29;20266;-76
2023/01/23 12:50:35;;;;;;;21.20;8.63;;;4.10;99.90;;;;;;4899897;29;20229;-77
2023/01/23 12:53:09;;;;;;;24.33;8.77;;;4.20;99.90;;;;;;4915901;29;20213;-75
2023/01/23 12:55:39;;;;;;;26.23;9.00;;;4.20;99.90;;;;;;4915313;29;20216;-77
2023/01/23 12:58:12;;;;;;;20.50;8.63;;;4.20;99.90;;;;;;4915617;29;20240;-74
2023/01/23 13:00:49;;;;;;;22.93;9.63;;;4.10;99.90;;;;;;4915942;29;20297;-74
2023/01/23 13:03:33;;;;;;;21.87;9.63;;;4.20;99.90;;;;;;4916320;29;20208;-74
2023/01/23 13:06:13;;;;;;;22.50;9.87;;;4.30;99.90;;;;;;4916879;29;20213;-74
2023/01/23 13:08:53;;;;;;;25.13;9.50;;;4.30;99.90;;;;;;4916525;29;20244;-74
2023/01/23 13:11:40;;;;;;;22.63;9.40;;;4.30;99.90;;;;;;4916629;29;20604;-75
2023/01/23 13:14:17;;;;;;;18.93;8.50;;;4.50;99.90;;;;;;4913278;29;20205;-75
2023/01/23 13:16:47;;;;;;;16.33;8.00;;;4.40;99.90;;;;;;4914940;29;20209;-75
2023/01/23 13:22:16;;;;;;;22.10;9.70;;;4.40;99.90;;;;;;4919041;29;20213;-75
2023/01/23 13:27:45;;;;;;;16.67;8.20;;;4.50;99.90;;;;;;4910187;29;20593;-78
2023/01/23 13:30:40;;;;;;;19.27;8.80;;;4.20;99.90;;;;;;4906126;29;20214;-75
2023/01/23 13:33:49;;;;;;;22.23;8.83;;;4.20;99.90;;;;;;4904627;29;20206;-75
2023/01/23 13:36:26;;;;;;;28.87;9.00;;;4.30;99.90;;;;;;4895706;29;20218;-75
2023/01/23 13:39:24;;;;;;;22.17;9.50;;;4.50;99.90;;;;;;4900223;29;20230;-79
2023/01/23 13:42:43;;;;;;;19.93;9.47;;;4.40;99.90;;;;;;4915977;29;20216;-74
2023/01/23 13:45:26;;;;;;;18.07;8.00;;;4.40;99.90;;;;;;4923727;29;20212;-75
2023/01/23 13:51:05;;;;;;;20.73;8.87;;;4.50;99.90;;;;;;4914616;29;20289;-75
2023/01/23 13:59:06;;;;;;;24.40;8.47;;;4.60;99.90;;;;;;4926892;29;20824;-75
2023/01/23 14:07:41;;;;;;;20.03;9.27;;;4.70;99.90;;;;;;4925822;29;20244;-77
2023/01/23 14:10:27;;;;;;;24.17;8.83;;;4.40;99.90;;;;;;4918122;29;20767;-72
2023/01/23 14:13:05;;;;;;;22.27;8.97;;;4.30;99.90;;;;;;4919990;29;20343;-75
2023/01/23 14:18:29;;;;;;;23.83;9.03;;;4.60;99.90;;;;;;4924353;29;20328;-73
2023/01/23 14:21:01;;;;;;;23.60;9.40;;;4.50;99.90;;;;;;4926947;29;20292;-75
2023/01/23 14:23:34;;;;;;;25.17;9.87;;;4.40;99.90;;;;;;4919251;29;20218;-74
2023/01/23 14:26:01;;;;;;;17.83;8.73;;;4.30;99.90;;;;;;4919698;29;20657;-74
2023/01/23 14:28:28;;;;;;;28.33;10.43;;;4.40;99.90;;;;;;4920465;29;20243;-73
2023/01/23 14:30:56;;;;;;;24.17;9.53;;;4.30;99.90;;;;;;4919572;29;20237;-74
2023/01/23 14:33:25;;;;;;;22.60;9.30;;;4.40;99.90;;;;;;4919697;29;20210;-72
2023/01/23 14:35:55;;;;;;;20.13;8.63;;;4.50;99.90;;;;;;4920028;29;20220;-72
2023/01/23 14:38:34;;;;;;;20.10;8.17;;;4.40;99.90;;;;;;4919404;29;20708;-74
2023/01/23 14:41:05;;;;;;;22.73;8.97;;;4.20;99.90;;;;;;4919291;29;20213;-75
2023/01/23 14:43:34;;;;;;;21.33;9.57;;;4.30;99.90;;;;;;4919603;29;20217;-74
2023/01/23 14:46:03;;;;;;;19.27;9.00;;;4.20;99.90;;;;;;4919366;29;20220;-74
2023/01/23 14:48:36;;;;;;;22.57;9.33;;;4.30;99.90;;;;;;4919212;29;20233;-74
2023/01/23 14:51:08;;;;;;;22.87;8.17;;;4.30;99.90;;;;;;4919281;29;20230;-74
2023/01/23 14:53:38;;;;;;;24.33;9.27;;;4.20;99.90;;;;;;4919320;29;20210;-74
2023/01/23 14:56:06;;;;;;;27.13;9.53;;;4.10;99.90;;;;;;4919402;29;20209;-74
2023/01/23 14:58:34;;;;;;;23.30;9.97;;;4.20;99.90;;;;;;4919338;29;20588;-75
2023/01/23 15:01:01;;;;;;;30.50;11.03;;;4.30;99.90;;;;;;4919394;29;20222;-72
2023/01/23 15:03:37;;;;;;;24.80;10.03;;;4.10;99.90;;;;;;4918842;29;20212;-73
2023/01/23 15:06:08;;;;;;;23.33;9.07;;;4.10;99.90;;;;;;4918664;29;20209;-73
2023/01/23 15:08:36;;;;;;;21.17;8.57;;;4.10;99.90;;;;;;4918518;29;20230;-72
2023/01/23 15:11:05;;;;;;;20.70;8.97;;;4.10;99.90;;;;;;4918749;29;20244;-73
2023/01/23 15:13:36;;;;;;;21.50;9.23;;;4.00;99.90;;;;;;4918660;29;20671;-73
2023/01/23 15:16:06;;;;;;;19.90;9.00;;;4.00;99.90;;;;;;4918666;29;20257;-73
2023/01/23 15:18:36;;;;;;;19.80;9.73;;;3.90;99.90;;;;;;4918387;29;20225;-73
2023/01/23 15:21:04;;;;;;;18.33;8.20;;;3.80;99.90;;;;;;4918874;29;20221;-73
2023/01/23 15:23:35;;;;;;;15.30;6.87;;;3.80;99.90;;;;;;4918780;29;20657;-73
2023/01/23 15:26:10;;;;;;;12.43;6.23;;;3.80;99.90;;;;;;4918708;29;20206;-73
2023/01/23 15:28:48;;;;;;;13.50;5.73;;;3.70;99.90;;;;;;4918494;29;20229;-74
2023/01/23 15:31:29;;;;;;;12.37;6.27;;;3.70;99.90;;;;;;4918356;29;20240;-73
2023/01/23 15:34:17;;;;;;;13.17;5.67;;;3.70;99.90;;;;;;4918431;29;20210;-72
2023/01/23 15:36:48;;;;;;;13.93;7.40;;;3.70;99.90;;;;;;4918486;29;20273;-73
2023/01/23 15:39:19;;;;;;;9.90;5.03;;;3.60;99.90;;;;;;4918051;29;20237;-73
2023/01/23 15:41:49;;;;;;;13.50;6.60;;;3.60;99.90;;;;;;4918372;29;20214;-73
2023/01/23 15:44:18;;;;;;;12.53;6.30;;;3.50;99.90;;;;;;4918450;29;20232;-73
2023/01/23 15:46:45;;;;;;;12.33;6.20;;;3.50;99.90;;;;;;4917692;29;20206;-72
2023/01/23 15:49:14;;;;;;;10.03;5.33;;;3.50;99.90;;;;;;4917864;29;20680;-73
2023/01/23 15:51:41;;;;;;;12.17;6.57;;;3.50;99.90;;;;;;4917860;29;20739;-72
2023/01/23 15:54:16;;;;;;;13.87;6.33;;;3.40;99.90;;;;;;4917991;29;20232;-73
2023/01/23 15:56:44;;;;;;;12.73;6.47;;;3.50;99.90;;;;;;4918052;29;20683;-73
2023/01/23 15:59:15;;;;;;;15.83;7.20;;;3.40;99.90;;;;;;4917887;29;20241;-73
2023/01/23 16:01:42;;;;;;;10.67;6.07;;;3.50;99.90;;;;;;4917452;29;20214;-73
2023/01/23 16:04:08;;;;;;;14.93;8.27;;;3.40;99.90;;;;;;4917932;29;20217;-73
2023/01/23 16:06:37;;;;;;;14.40;7.30;;;3.40;99.90;;;;;;4917567;29;20209;-72
2023/01/23 16:09:04;;;;;;;13.77;7.17;;;3.50;99.90;;;;;;4917865;29;20240;-72
2023/01/23 16:11:33;;;;;;;15.13;7.37;;;3.40;99.90;;;;;;4918034;29;20324;-73
2023/01/23 16:14:01;;;;;;;14.93;8.17;;;3.40;99.90;;;;;;4918112;29;20565;-73
2023/01/23 16:16:29;;;;;;;17.00;8.37;;;3.40;99.90;;;;;;4917893;29;20216;-73
2023/01/23 16:18:55;;;;;;;14.73;6.63;;;3.50;99.90;;;;;;4917482;29;20378;-73
2023/01/23 16:21:29;;;;;;;13.40;6.93;;;3.50;99.90;;;;;;4917072;29;20210;-73
2023/01/23 16:23:58;;;;;;;14.87;8.47;;;3.60;99.90;;;;;;4917882;29;20286;-73
2023/01/23 16:26:27;;;;;;;16.03;8.20;;;3.70;99.90;;;;;;4914754;29;20297;-70
2023/01/23 16:28:54;;;;;;;20.60;8.43;;;3.50;99.90;;;;;;4916256;29;20240;-72
2023/01/23 16:31:21;;;;;;;18.00;8.43;;;3.50;99.90;;;;;;4916014;29;20221;-73
2023/01/23 16:33:48;;;;;;;16.80;8.23;;;3.40;99.90;;;;;;4915564;29;20210;-73
2023/01/23 16:36:17;;;;;;;20.70;8.77;;;3.30;99.90;;;;;;4915965;29;20305;-73
2023/01/23 16:38:48;;;;;;;15.80;8.53;;;3.30;99.90;;;;;;4915506;29;20233;-71
2023/01/23 16:41:16;;;;;;;21.83;9.23;;;3.30;99.90;;;;;;4915424;29;20216;-76
2023/01/23 16:43:43;;;;;;;17.97;8.53;;;3.40;99.90;;;;;;4915812;29;20216;-73
2023/01/23 16:46:10;;;;;;;18.30;8.23;;;3.40;99.90;;;;;;4916133;29;20206;-73
2023/01/23 16:48:37;;;;;;;20.63;10.13;;;3.30;99.90;;;;;;4915749;29;20240;-72
2023/01/23 16:51:07;;;;;;;17.53;8.23;;;3.40;99.90;;;;;;4915839;29;20209;-73
2023/01/23 16:53:38;;;;;;;22.60;8.20;;;3.50;99.90;;;;;;4919398;29;20638;-72
2023/01/23 16:56:05;;;;;;;17.20;8.03;;;3.50;99.90;;;;;;4915114;29;20213;-72
2023/01/23 16:58:39;;;;;;;18.87;8.47;;;3.50;99.90;;;;;;4915843;29;20244;-72
2023/01/23 17:01:13;;;;;;;14.67;7.40;;;3.50;99.90;;;;;;4916029;29;20216;-74
2023/01/23 17:03:41;;;;;;;17.23;7.43;;;3.30;99.90;;;;;;4916773;29;20216;-73
2023/01/23 17:06:12;;;;;;;12.27;6.37;;;3.20;99.90;;;;;;4917121;29;20220;-72
2023/01/23 17:08:39;;;;;;;13.70;6.43;;;3.10;99.90;;;;;;4916721;29;20240;-72
2023/01/23 17:11:07;;;;;;;13.93;6.47;;;3.10;99.90;;;;;;4916668;29;20213;-73
2023/01/23 17:13:35;;;;;;;13.23;6.00;;;3.20;99.90;;;;;;4917021;29;20248;-73
2023/01/23 17:16:04;;;;;;;11.03;5.30;;;3.10;99.90;;;;;;4916879;29;20220;-72
2023/01/23 17:18:33;;;;;;;12.93;5.60;;;3.20;99.90;;;;;;4916618;29;20233;-72
2023/01/23 17:21:00;;;;;;;11.87;5.90;;;3.20;99.90;;;;;;4916821;29;20214;-72
2023/01/23 17:23:27;;;;;;;12.53;6.57;;;3.10;99.90;;;;;;4916827;29;20217;-73
2023/01/23 17:25:54;;;;;;;13.67;6.13;;;3.20;99.90;;;;;;4916813;29;20214;-72
2023/01/23 17:28:21;;;;;;;11.50;6.00;;;3.10;99.90;;;;;;4916903;29;20277;-73
2023/01/23 17:30:51;;;;;;;14.80;6.57;;;3.10;99.90;;;;;;4916972;29;20225;-73
2023/01/23 17:33:21;;;;;;;14.93;6.73;;;3.20;99.90;;;;;;4920127;29;20241;-72
2023/01/23 17:35:49;;;;;;;14.30;6.67;;;3.20;99.90;;;;;;4920540;29;20220;-72
2023/01/23 17:38:18;;;;;;;13.47;7.20;;;3.10;99.90;;;;;;4920486;29;20226;-72
2023/01/23 17:40:45;;;;;;;13.53;6.50;;;3.10;99.90;;;;;;4920544;29;20217;-72
2023/01/23 17:43:12;;;;;;;13.10;7.33;;;3.10;99.90;;;;;;4920627;29;20209;-72
2023/01/23 17:45:45;;;;;;;16.07;7.50;;;3.20;99.90;;;;;;4920447;29;20209;-72
2023/01/23 17:48:15;;;;;;;12.57;6.33;;;3.20;99.90;;;;;;4920176;29;20226;-72
2023/01/23 17:50:44;;;;;;;15.50;7.20;;;3.20;99.90;;;;;;4920393;29;20213;-73
2023/01/23 17:53:12;;;;;;;12.20;6.17;;;3.20;99.90;;;;;;4920133;29;20720;-73
2023/01/23 17:55:39;;;;;;;12.83;6.77;;;3.10;99.90;;;;;;4920282;29;20213;-72
2023/01/23 17:58:07;;;;;;;13.73;6.83;;;3.20;99.90;;;;;;4920142;29;20320;-72
2023/01/23 18:00:34;;;;;;;18.33;7.50;;;3.20;99.90;;;;;;4920050;29;20818;-72
2023/01/23 18:03:03;;;;;;;15.90;8.00;;;3.10;99.90;;;;;;4920081;29;20217;-73
2023/01/23 18:05:31;;;;;;;13.83;6.27;;;3.20;99.90;;;;;;4920185;29;20220;-73
2023/01/23 18:07:58;;;;;;;14.07;6.97;;;3.20;99.90;;;;;;4920180;29;20229;-73
2023/01/23 18:10:27;;;;;;;15.23;7.30;;;3.20;99.90;;;;;;4919740;29;20210;-73
2023/01/23 18:13:02;;;;;;;16.53;7.53;;;3.20;99.90;;;;;;4920021;29;20697;-72
2023/01/23 18:15:35;;;;;;;15.50;7.37;;;3.20;99.90;;;;;;4919901;29;20660;-72
2023/01/23 18:18:19;;;;;;;15.20;7.90;;;3.30;99.90;;;;;;4919370;29;20236;-72
2023/01/23 18:20:53;;;;;;;15.27;7.63;;;3.30;99.90;;;;;;4919960;29;20209;-72
2023/01/23 18:23:21;;;;;;;17.30;7.17;;;3.30;99.90;;;;;;4919858;29;20222;-73
2023/01/23 18:25:57;;;;;;;19.20;8.70;;;3.30;99.90;;;;;;4919814;29;20210;-72
2023/01/23 18:28:24;;;;;;;15.17;7.73;;;3.40;99.90;;;;;;4919754;29;20235;-72
2023/01/23 18:30:59;;;;;;;18.07;8.27;;;3.40;99.90;;;;;;4919591;29;20274;-73
2023/01/23 18:33:55;;;;;;;18.10;8.57;;;3.40;99.90;;;;;;4919481;29;20237;-73
2023/01/23 18:36:34;;;;;;;17.93;7.87;;;3.50;99.90;;;;;;4919298;29;20214;-73
2023/01/23 18:39:18;;;;;;;17.93;8.40;;;3.50;99.90;;;;;;4919576;29;20229;-75
2023/01/23 18:41:58;;;;;;;16.73;8.40;;;3.60;99.90;;;;;;4919119;29;20210;-72
2023/01/23 18:44:27;;;;;;;20.00;8.80;;;3.50;99.90;;;;;;4918734;29;20236;-74
2023/01/23 18:46:55;;;;;;;17.17;8.20;;;3.60;99.90;;;;;;4919158;29;20598;-74
2023/01/23 18:49:22;;;;;;;15.10;7.27;;;3.50;99.90;;;;;;4919407;29;20213;-74
2023/01/23 18:52:00;;;;;;;16.43;8.00;;;3.40;99.90;;;;;;4919470;29;20217;-74
2023/01/23 18:54:35;;;;;;;16.67;7.90;;;3.50;99.90;;;;;;4919389;29;20208;-73
2023/01/23 18:57:14;;;;;;;16.00;7.67;;;3.70;99.90;;;;;;4919270;29;20213;-74
2023/01/23 18:59:48;;;;;;;13.87;7.67;;;3.60;99.90;;;;;;4918907;29;20544;-72
2023/01/23 19:02:23;;;;;;;17.17;8.00;;;3.60;99.90;;;;;;4918746;29;20213;-73
2023/01/23 19:04:55;;;;;;;11.53;6.53;;;3.80;99.90;;;;;;4918908;29;20301;-73
2023/01/23 19:07:24;;;;;;;17.30;8.00;;;3.80;99.90;;;;;;4919446;29;20236;-73
2023/01/23 19:09:51;;;;;;;16.33;7.77;;;3.80;99.90;;;;;;4918598;29;20219;-73
2023/01/23 19:12:26;;;;;;;14.10;7.07;;;3.80;99.90;;;;;;4918920;29;20220;-72
2023/01/23 19:15:18;;;;;;;13.33;7.13;;;4.00;99.90;;;;;;4918758;29;20209;-73
2023/01/23 19:17:49;;;;;;;15.43;7.33;;;3.90;99.90;;;;;;4918497;29;20225;-73
2023/01/23 19:20:31;;;;;;;15.87;7.17;;;4.10;99.90;;;;;;4918438;29;20216;-73
2023/01/23 19:23:17;;;;;;;13.37;7.03;;;4.00;99.90;;;;;;4918227;29;20210;-73
2023/01/23 19:25:46;;;;;;;14.30;7.73;;;3.90;99.90;;;;;;4918915;29;20278;-73
2023/01/23 19:28:14;;;;;;;15.20;8.07;;;3.80;99.90;;;;;;4918621;29;20226;-73
2023/01/23 19:30:41;;;;;;;15.27;7.43;;;3.70;99.90;;;;;;4918290;29;20248;-74
2023/01/23 19:33:12;;;;;;;14.40;7.50;;;3.80;99.90;;;;;;4918689;29;20248;-73
2023/01/23 19:35:38;;;;;;;13.87;6.87;;;3.90;99.90;;;;;;4918512;29;20696;-73
2023/01/23 19:38:06;;;;;;;14.67;7.83;;;3.80;99.90;;;;;;4918437;29;20238;-74
2023/01/23 19:40:33;;;;;;;15.90;7.90;;;3.70;99.90;;;;;;4918571;29;20637;-73
2023/01/23 19:43:00;;;;;;;14.10;6.57;;;3.80;99.90;;;;;;4918528;29;20218;-74
2023/01/23 19:45:27;;;;;;;15.77;7.63;;;3.80;99.90;;;;;;4918314;29;20212;-73
2023/01/23 19:47:54;;;;;;;13.60;6.93;;;3.70;99.90;;;;;;4918231;29;20233;-74
2023/01/23 19:50:21;;;;;;;13.93;7.27;;;3.60;99.90;;;;;;4918448;29;20209;-73
2023/01/23 19:52:51;;;;;;;15.60;7.33;;;3.60;99.90;;;;;;4917986;29;20693;-73
2023/01/23 19:55:24;;;;;;;13.83;7.93;;;3.80;99.90;;;;;;4917065;29;20225;-73
2023/01/23 19:57:51;;;;;;;14.83;7.97;;;3.80;99.90;;;;;;4917693;29;20225;-73
2023/01/23 20:00:18;;;;;;;17.37;8.17;;;3.70;99.90;;;;;;4919243;29;20485;-74
2023/01/23 20:02:45;;;;;;;14.57;7.80;;;3.60;99.90;;;;;;4918597;29;20221;-73
2023/01/23 20:05:12;;;;;;;13.33;7.07;;;3.60;99.90;;;;;;4917858;29;20209;-73
2023/01/23 20:07:39;;;;;;;22.33;10.37;;;3.80;99.90;;;;;;4918605;29;20235;-73
2023/01/23 20:10:07;;;;;;;20.07;8.50;;;3.60;99.90;;;;;;4918191;29;20213;-73
2023/01/23 20:12:41;;;;;;;14.13;8.23;;;3.60;99.90;;;;;;4917653;29;20224;-74
2023/01/23 20:15:10;;;;;;;20.30;9.43;;;3.50;99.90;;;;;;4917845;29;20265;-73
2023/01/23 20:17:37;;;;;;;19.97;8.23;;;3.40;99.90;;;;;;4917716;29;20237;-73
2023/01/23 20:20:06;;;;;;;20.00;9.27;;;3.50;99.90;;;;;;4917533;29;20209;-73
2023/01/23 20:22:32;;;;;;;15.53;7.80;;;3.50;99.90;;;;;;4917234;29;20220;-73
2023/01/23 20:24:59;;;;;;;18.60;9.70;;;3.40;99.90;;;;;;4917633;29;20240;-73
2023/01/23 20:27:26;;;;;;;20.87;8.80;;;3.40;99.90;;;;;;4918149;29;20234;-73
2023/01/23 20:29:54;;;;;;;16.23;8.57;;;3.40;99.90;;;;;;4917435;29;20216;-73
2023/01/23 20:32:21;;;;;;;15.90;8.43;;;3.50;99.90;;;;;;4917295;29;20212;-73
2023/01/23 20:34:48;;;;;;;23.10;9.73;;;3.60;99.90;;;;;;4917273;29;20240;-73
2023/01/23 20:37:16;;;;;;;18.77;8.67;;;3.70;99.90;;;;;;4917248;29;20233;-73
2023/01/23 20:39:43;;;;;;;20.40;9.43;;;3.70;99.90;;;;;;4917139;29;20219;-73
2023/01/23 20:42:09;;;;;;;21.03;9.17;;;3.80;99.90;;;;;;4917229;29;20691;-73
2023/01/23 20:44:36;;;;;;;20.00;9.93;;;3.70;99.90;;;;;;4917255;29;20216;-73
2023/01/23 20:47:05;;;;;;;18.07;9.23;;;3.50;99.90;;;;;;4916921;29;20673;-73
2023/01/23 20:49:31;;;;;;;20.90;9.07;;;3.60;99.90;;;;;;4917260;29;20213;-74
2023/01/23 20:53:28;;;;;;;18.47;9.40;;;3.40;99.90;;;;;;4916842;29;20209;-73
2023/01/23 20:54:45;;;;;;;19.80;9.63;;;3.40;99.90;;;;;;4916539;29;20780;-73
2023/01/23 20:57:12;;;;;;;20.50;8.87;;;3.40;99.90;;;;;;4916613;29;20598;-73
2023/01/23 20:59:38;;;;;;;17.77;8.87;;;3.30;99.90;;;;;;4917045;29;20269;-73
2023/01/23 21:02:22;;;;;;;22.03;8.43;;;3.50;99.90;;;;;;4916873;29;20284;-73
2023/01/23 21:04:50;;;;;;;21.50;10.47;;;3.50;99.90;;;;;;4917103;29;20213;-74
2023/01/23 21:07:19;;;;;;;20.27;9.93;;;3.60;99.90;;;;;;4916647;29;20233;-73
2023/01/23 21:09:46;;;;;;;23.20;9.93;;;3.30;99.90;;;;;;4917070;29;20237;-73
2023/01/23 21:12:13;;;;;;;24.37;10.33;;;3.30;99.90;;;;;;4917032;29;20210;-73
2023/01/23 21:14:40;;;;;;;20.70;9.87;;;3.30;99.90;;;;;;4916679;29;20248;-73
2023/01/23 21:17:08;;;;;;;21.10;9.33;;;3.50;99.90;;;;;;4916392;29;20221;-73
2023/01/23 21:19:37;;;;;;;21.73;10.17;;;3.40;99.90;;;;;;4916530;29;20252;-73
2023/01/23 21:22:05;;;;;;;23.13;10.83;;;3.50;99.90;;;;;;4916684;29;20288;-73
2023/01/23 21:24:37;;;;;;;22.43;10.07;;;3.40;99.90;;;;;;4916480;29;20221;-73
2023/01/23 21:27:04;;;;;;;21.47;10.63;;;3.50;99.90;;;;;;4916503;29;20221;-73
2023/01/23 21:29:32;;;;;;;23.73;10.90;;;3.40;99.90;;;;;;4916577;29;20218;-73
2023/01/23 21:31:59;;;;;;;19.73;9.23;;;3.40;99.90;;;;;;4916547;29;20677;-73
2023/01/23 21:34:27;;;;;;;21.10;10.27;;;3.20;99.90;;;;;;4916599;29;20233;-73
2023/01/23 21:36:54;;;;;;;22.13;9.87;;;3.30;99.90;;;;;;4916818;29;20258;-73
2023/01/23 21:39:21;;;;;;;23.73;10.80;;;3.30;99.90;;;;;;4912870;29;20201;-73
2023/01/23 21:41:48;;;;;;;24.10;11.43;;;3.20;99.90;;;;;;4916193;29;20209;-73
